sensor_id;sensor_type;location;lat;lon;timestamp;pressure;altitude;pressure_sealevel;temperature;humidity
42105;BME280;70664;51.472;5.712;2024-01-30T00:02:14;102467.47;;;16.13;63.77
42105;BME280;70664;51.472;5.712;2024-01-30T00:04:39;102470.06;;;16.13;63.81
42105;BME280;70664;51.472;5.712;2024-01-30T00:07:05;102468.31;;;16.13;63.33
42105;BME280;70664;51.472;5.712;2024-01-30T00:09:31;102468.31;;;16.12;63.43
42105;BME280;70664;51.472;5.712;2024-01-30T00:11:57;102462.25;;;16.11;63.42
42105;BME280;70664;51.472;5.712;2024-01-30T00:14:23;102470.88;;;16.09;63.24
42105;BME280;70664;51.472;5.712;2024-01-30T00:16:49;102473.44;;;16.04;63.59
42105;BME280;70664;51.472;5.712;2024-01-30T00:19:14;102469.09;;;16.03;63.64
42105;BME280;70664;51.472;5.712;2024-01-30T00:21:40;102470.84;;;16.04;63.56
42105;BME280;70664;51.472;5.712;2024-01-30T00:24:06;102468.25;;;16.01;63.58
42105;BME280;70664;51.472;5.712;2024-01-30T00:26:32;102470.81;;;15.98;63.80
42105;BME280;70664;51.472;5.712;2024-01-30T00:28:58;102470.81;;;15.98;63.38
42105;BME280;70664;51.472;5.712;2024-01-30T00:31:24;102464.75;;;15.96;63.61
42105;BME280;70664;51.472;5.712;2024-01-30T00:33:50;102464.75;;;15.97;63.51
42105;BME280;70664;51.472;5.712;2024-01-30T00:36:16;102460.44;;;15.98;63.47
42105;BME280;70664;51.472;5.712;2024-01-30T00:38:42;102463.00;;;15.93;63.41
42105;BME280;70664;51.472;5.712;2024-01-30T00:41:11;102460.38;;;15.93;63.66
42105;BME280;70664;51.472;5.712;2024-01-30T00:43:37;102454.31;;;15.90;63.40
42105;BME280;70664;51.472;5.712;2024-01-30T00:46:03;102452.63;;;15.92;63.24
42105;BME280;70664;51.472;5.712;2024-01-30T00:48:29;102455.19;;;15.88;63.51
42105;BME280;70664;51.472;5.712;2024-01-30T00:50:55;102457.78;;;15.88;63.39
42105;BME280;70664;51.472;5.712;2024-01-30T00:53:20;102456.91;;;15.86;63.40
42105;BME280;70664;51.472;5.712;2024-01-30T00:55:46;102451.63;;;15.80;63.65
42105;BME280;70664;51.472;5.712;2024-01-30T00:58:12;102452.50;;;15.81;63.63
42105;BME280;70664;51.472;5.712;2024-01-30T01:00:39;102449.06;;;15.82;63.23
42105;BME280;70664;51.472;5.712;2024-01-30T01:03:05;102447.31;;;15.81;63.20
42105;BME280;70664;51.472;5.712;2024-01-30T01:05:31;102449.91;;;15.81;63.55
42105;BME280;70664;51.472;5.712;2024-01-30T01:07:57;102452.50;;;15.81;63.26
42105;BME280;70664;51.472;5.712;2024-01-30T01:10:23;102448.19;;;15.80;63.66
42105;BME280;70664;51.472;5.712;2024-01-30T01:12:49;102444.72;;;15.78;63.46
42105;BME280;70664;51.472;5.712;2024-01-30T01:15:15;102441.19;;;15.72;63.25
42105;BME280;70664;51.472;5.712;2024-01-30T01:17:41;102441.25;;;15.79;63.13
42105;BME280;70664;51.472;5.712;2024-01-30T01:20:08;102443.81;;;15.74;63.30
42105;BME280;70664;51.472;5.712;2024-01-30T01:22:34;102448.13;;;15.73;63.44
42105;BME280;70664;51.472;5.712;2024-01-30T01:25:00;102441.19;;;15.72;63.51
42105;BME280;70664;51.472;5.712;2024-01-30T01:27:27;102442.06;;;15.71;63.37
42105;BME280;70664;51.472;5.712;2024-01-30T01:29:53;102440.31;;;15.69;63.38
42105;BME280;70664;51.472;5.712;2024-01-30T01:32:19;102441.22;;;15.71;63.08
42105;BME280;70664;51.472;5.712;2024-01-30T01:34:45;102442.06;;;15.70;63.39
42105;BME280;70664;51.472;5.712;2024-01-30T01:37:11;102443.78;;;15.69;63.28
42105;BME280;70664;51.472;5.712;2024-01-30T01:39:37;102438.53;;;15.63;63.21
42105;BME280;70664;51.472;5.712;2024-01-30T01:42:03;102433.38;;;15.65;63.33
42105;BME280;70664;51.472;5.712;2024-01-30T01:44:29;102432.53;;;15.66;63.10
42105;BME280;70664;51.472;5.712;2024-01-30T01:46:55;102427.31;;;15.63;63.07
42105;BME280;70664;51.472;5.712;2024-01-30T01:49:24;102429.03;;;15.64;63.40
42105;BME280;70664;51.472;5.712;2024-01-30T01:51:51;102427.28;;;15.60;63.21
42105;BME280;70664;51.472;5.712;2024-01-30T01:54:20;102430.75;;;15.62;63.24
42105;BME280;70664;51.472;5.712;2024-01-30T01:56:45;102422.97;;;15.60;63.11
42105;BME280;70664;51.472;5.712;2024-01-30T01:59:11;102430.69;;;15.55;63.45
42105;BME280;70664;51.472;5.712;2024-01-30T02:01:37;102435.03;;;15.56;63.13
42105;BME280;70664;51.472;5.712;2024-01-30T02:04:04;102424.63;;;15.53;63.55
42105;BME280;70664;51.472;5.712;2024-01-30T02:06:31;102419.50;;;15.58;63.15
42105;BME280;70664;51.472;5.712;2024-01-30T02:08:57;102422.06;;;15.56;63.09
42105;BME280;70664;51.472;5.712;2024-01-30T02:11:23;102411.66;;;15.53;63.18
42105;BME280;70664;51.472;5.712;2024-01-30T02:13:50;102416.81;;;15.49;63.21
42105;BME280;70664;51.472;5.712;2024-01-30T02:16:16;102415.97;;;15.50;63.35
42105;BME280;70664;51.472;5.712;2024-01-30T02:18:45;102414.22;;;15.49;63.30
42105;BME280;70664;51.472;5.712;2024-01-30T02:21:16;102414.22;;;15.49;63.51
42105;BME280;70664;51.472;5.712;2024-01-30T02:23:44;102410.78;;;15.51;63.38
42105;BME280;70664;51.472;5.712;2024-01-30T02:26:11;102417.69;;;15.46;63.40
42105;BME280;70664;51.472;5.712;2024-01-30T02:28:38;102409.91;;;15.46;63.22
42105;BME280;70664;51.472;5.712;2024-01-30T02:31:04;102410.75;;;15.48;63.10
42105;BME280;70664;51.472;5.712;2024-01-30T02:33:30;102409.06;;;15.47;63.33
42105;BME280;70664;51.472;5.712;2024-01-30T02:35:56;102413.31;;;15.43;63.33
42105;BME280;70664;51.472;5.712;2024-01-30T02:38:22;102407.28;;;15.45;62.98
42105;BME280;70664;51.472;5.712;2024-01-30T02:40:49;102409.03;;;15.44;63.09
42105;BME280;70664;51.472;5.712;2024-01-30T02:43:16;102400.38;;;15.43;63.16
42105;BME280;70664;51.472;5.712;2024-01-30T02:45:42;102403.81;;;15.42;63.27
42105;BME280;70664;51.472;5.712;2024-01-30T02:48:08;102402.06;;;15.41;62.97
42105;BME280;70664;51.472;5.712;2024-01-30T02:50:34;102400.34;;;15.39;63.26
42105;BME280;70664;51.472;5.712;2024-01-30T02:53:00;102404.63;;;15.37;63.14
42105;BME280;70664;51.472;5.712;2024-01-30T02:55:25;102402.03;;;15.37;63.46
42105;BME280;70664;51.472;5.712;2024-01-30T02:57:51;102398.56;;;15.35;63.13
42105;BME280;70664;51.472;5.712;2024-01-30T03:00:18;102406.34;;;15.33;63.41
42105;BME280;70664;51.472;5.712;2024-01-30T03:02:45;102401.19;;;15.38;62.97
42105;BME280;70664;51.472;5.712;2024-01-30T03:05:11;102396.84;;;15.35;63.15
42105;BME280;70664;51.472;5.712;2024-01-30T03:07:36;102402.00;;;15.34;63.10
42105;BME280;70664;51.472;5.712;2024-01-30T03:10:04;102396.84;;;15.35;63.24
42105;BME280;70664;51.472;5.712;2024-01-30T03:12:30;102397.69;;;15.33;63.47
42105;BME280;70664;51.472;5.712;2024-01-30T03:14:55;102396.81;;;15.29;63.32
42105;BME280;70664;51.472;5.712;2024-01-30T03:17:21;102390.72;;;15.28;63.36
42105;BME280;70664;51.472;5.712;2024-01-30T03:19:47;102393.38;;;15.35;63.22
42105;BME280;70664;51.472;5.712;2024-01-30T03:22:13;102389.00;;;15.27;63.27
42105;BME280;70664;51.472;5.712;2024-01-30T03:24:38;102388.19;;;15.30;63.09
42105;BME280;70664;51.472;5.712;2024-01-30T03:27:04;102386.44;;;15.29;63.58
42105;BME280;70664;51.472;5.712;2024-01-30T03:29:30;102380.31;;;15.22;63.56
42105;BME280;70664;51.472;5.712;2024-01-30T03:31:56;102380.34;;;15.25;63.01
42105;BME280;70664;51.472;5.712;2024-01-30T03:34:21;102374.28;;;15.22;63.24
42105;BME280;70664;51.472;5.712;2024-01-30T03:36:47;102373.44;;;15.27;63.26
42105;BME280;70664;51.472;5.712;2024-01-30T03:39:13;102373.41;;;15.20;63.43
42105;BME280;70664;51.472;5.712;2024-01-30T03:41:42;102365.66;;;15.24;63.16
42105;BME280;70664;51.472;5.712;2024-01-30T03:44:10;102363.88;;;15.20;63.16
42105;BME280;70664;51.472;5.712;2024-01-30T03:46:36;102357.88;;;15.23;63.12
42105;BME280;70664;51.472;5.712;2024-01-30T03:49:01;102360.44;;;15.20;63.16
42105;BME280;70664;51.472;5.712;2024-01-30T03:51:27;102361.31;;;15.22;63.10
42105;BME280;70664;51.472;5.712;2024-01-30T03:53:53;102369.94;;;15.19;63.28
42105;BME280;70664;51.472;5.712;2024-01-30T03:56:19;102360.44;;;15.21;63.25
42105;BME280;70664;51.472;5.712;2024-01-30T03:58:45;102364.78;;;15.21;63.33
42105;BME280;70664;51.472;5.712;2024-01-30T04:01:16;102368.25;;;15.24;63.09
42105;BME280;70664;51.472;5.712;2024-01-30T04:03:42;102363.91;;;15.22;62.91
42105;BME280;70664;51.472;5.712;2024-01-30T04:06:09;102367.31;;;15.18;63.30
42105;BME280;70664;51.472;5.712;2024-01-30T04:08:36;102381.09;;;15.13;63.25
42105;BME280;70664;51.472;5.712;2024-01-30T04:11:05;102372.50;;;15.18;63.10
42105;BME280;70664;51.472;5.712;2024-01-30T04:13:32;102371.66;;;15.17;63.23
42105;BME280;70664;51.472;5.712;2024-01-30T04:16:02;102365.53;;;15.10;63.44
42105;BME280;70664;51.472;5.712;2024-01-30T04:18:29;102369.00;;;15.11;63.37
42105;BME280;70664;51.472;5.712;2024-01-30T04:20:54;102369.84;;;15.11;63.05
42105;BME280;70664;51.472;5.712;2024-01-30T04:23:21;102373.34;;;15.13;63.18
42105;BME280;70664;51.472;5.712;2024-01-30T04:25:46;102369.00;;;15.12;63.28
42105;BME280;70664;51.472;5.712;2024-01-30T04:28:12;102368.13;;;15.10;63.23
42105;BME280;70664;51.472;5.712;2024-01-30T04:30:38;102368.97;;;15.09;63.10
42105;BME280;70664;51.472;5.712;2024-01-30T04:33:04;102360.34;;;15.10;62.91
42105;BME280;70664;51.472;5.712;2024-01-30T04:35:30;102362.06;;;15.07;63.25
42105;BME280;70664;51.472;5.712;2024-01-30T04:37:56;102368.13;;;15.10;63.21
42105;BME280;70664;51.472;5.712;2024-01-30T04:40:22;102355.16;;;15.10;63.09
42105;BME280;70664;51.472;5.712;2024-01-30T04:42:48;102354.28;;;15.08;63.01
42105;BME280;70664;51.472;5.712;2024-01-30T04:45:14;102360.34;;;15.10;63.15
42105;BME280;70664;51.472;5.712;2024-01-30T04:47:39;102350.00;;;15.10;63.11
42105;BME280;70664;51.472;5.712;2024-01-30T04:50:09;102350.81;;;15.06;63.00
42105;BME280;70664;51.472;5.712;2024-01-30T04:52:35;102351.66;;;15.04;63.27
42105;BME280;70664;51.472;5.712;2024-01-30T04:55:01;102349.03;;;15.01;63.14
42105;BME280;70664;51.472;5.712;2024-01-30T04:57:27;102336.94;;;14.98;63.50
42105;BME280;70664;51.472;5.712;2024-01-30T04:59:53;102329.22;;;15.03;63.47
42105;BME280;70664;51.472;5.712;2024-01-30T05:02:19;102333.53;;;15.04;63.31
42105;BME280;70664;51.472;5.712;2024-01-30T05:04:45;102335.28;;;15.03;63.31
42105;BME280;70664;51.472;5.712;2024-01-30T05:07:10;102331.78;;;15.00;63.27
42105;BME280;70664;51.472;5.712;2024-01-30T05:09:36;102330.94;;;15.02;63.24
42105;BME280;70664;51.472;5.712;2024-01-30T05:12:02;102337.00;;;15.04;62.93
42105;BME280;70664;51.472;5.712;2024-01-30T05:14:28;102335.25;;;15.00;63.30
42105;BME280;70664;51.472;5.712;2024-01-30T05:16:54;102335.25;;;15.02;63.13
42105;BME280;70664;51.472;5.712;2024-01-30T05:19:20;102336.09;;;14.99;63.16
42105;BME280;70664;51.472;5.712;2024-01-30T05:21:47;102335.22;;;14.98;63.16
42105;BME280;70664;51.472;5.712;2024-01-30T05:24:12;102334.34;;;15.00;63.03
42105;BME280;70664;51.472;5.712;2024-01-30T05:26:38;102335.19;;;14.95;63.30
42105;BME280;70664;51.472;5.712;2024-01-30T05:29:05;102330.00;;;14.95;63.09
42105;BME280;70664;51.472;5.712;2024-01-30T05:31:31;102337.81;;;14.98;63.24
42105;BME280;70664;51.472;5.712;2024-01-30T05:33:57;102332.63;;;14.98;62.91
42105;BME280;70664;51.472;5.712;2024-01-30T05:36:23;102341.25;;;14.97;63.18
42105;BME280;70664;51.472;5.712;2024-01-30T05:38:49;102340.31;;;14.91;63.24
42105;BME280;70664;51.472;5.712;2024-01-30T05:41:14;102342.94;;;14.94;63.24
42105;BME280;70664;51.472;5.712;2024-01-30T05:43:43;102336.06;;;14.97;63.12
42105;BME280;70664;51.472;5.712;2024-01-30T05:46:09;102343.88;;;14.99;63.20
42105;BME280;70664;51.472;5.712;2024-01-30T05:48:35;102332.59;;;14.94;63.01
42105;BME280;70664;51.472;5.712;2024-01-30T05:51:01;102339.47;;;14.92;63.42
42105;BME280;70664;51.472;5.712;2024-01-30T05:53:28;102333.44;;;14.93;63.25
42105;BME280;70664;51.472;5.712;2024-01-30T05:55:54;102337.72;;;14.88;63.33
42105;BME280;70664;51.472;5.712;2024-01-30T05:58:19;102344.69;;;14.95;62.95
42105;BME280;70664;51.472;5.712;2024-01-30T06:00:45;102334.28;;;14.92;63.32
42105;BME280;70664;51.472;5.712;2024-01-30T06:03:11;102343.78;;;14.90;63.04
42105;BME280;70664;51.472;5.712;2024-01-30T06:05:37;102338.56;;;14.87;63.45
42105;BME280;70664;51.472;5.712;2024-01-30T06:08:03;102341.22;;;14.91;63.18
42105;BME280;70664;51.472;5.712;2024-01-30T06:10:28;102342.88;;;14.88;63.19
42105;BME280;70664;51.472;5.712;2024-01-30T06:12:54;102341.19;;;14.90;63.19
42105;BME280;70664;51.472;5.712;2024-01-30T06:15:20;102339.47;;;14.90;62.96
42105;BME280;70664;51.472;5.712;2024-01-30T06:17:46;102342.94;;;14.94;63.06
42105;BME280;70664;51.472;5.712;2024-01-30T06:20:12;102331.69;;;14.89;63.06
42105;BME280;70664;51.472;5.712;2024-01-30T06:22:37;102342.88;;;14.88;63.38
42105;BME280;70664;51.472;5.712;2024-01-30T06:25:04;102346.38;;;14.91;63.21
42105;BME280;70664;51.472;5.712;2024-01-30T06:27:30;102337.75;;;14.89;63.42
42105;BME280;70664;51.472;5.712;2024-01-30T06:29:55;102335.13;;;14.88;62.97
42105;BME280;70664;51.472;5.712;2024-01-30T06:32:21;102347.19;;;14.86;63.01
42105;BME280;70664;51.472;5.712;2024-01-30T06:34:47;102350.59;;;14.81;63.31
42105;BME280;70664;51.472;5.712;2024-01-30T06:37:13;102342.84;;;14.83;63.23
42105;BME280;70664;51.472;5.712;2024-01-30T06:39:39;102345.47;;;14.86;63.25
42105;BME280;70664;51.472;5.712;2024-01-30T06:42:04;102347.19;;;14.84;63.36
42105;BME280;70664;51.472;5.712;2024-01-30T06:44:30;102354.09;;;14.85;63.22
42105;BME280;70664;51.472;5.712;2024-01-30T06:46:56;102349.69;;;14.79;63.49
42105;BME280;70664;51.472;5.712;2024-01-30T06:49:22;102360.13;;;14.84;63.16
42105;BME280;70664;51.472;5.712;2024-01-30T06:51:48;102363.50;;;14.78;63.51
42105;BME280;70664;51.472;5.712;2024-01-30T06:54:13;102361.88;;;14.85;63.06
42105;BME280;70664;51.472;5.712;2024-01-30T06:56:39;102364.41;;;14.82;63.13
42105;BME280;70664;51.472;5.712;2024-01-30T06:59:05;102367.81;;;14.78;63.52
42105;BME280;70664;51.472;5.712;2024-01-30T07:01:31;102368.72;;;14.80;63.21
42105;BME280;70664;51.472;5.712;2024-01-30T07:03:57;102373.81;;;14.74;63.32
42105;BME280;70664;51.472;5.712;2024-01-30T07:06:23;102382.50;;;14.79;63.50
42105;BME280;70664;51.472;5.712;2024-01-30T07:08:50;102380.78;;;14.79;63.25
42105;BME280;70664;51.472;5.712;2024-01-30T07:11:20;102384.28;;;14.83;62.92
42105;BME280;70664;51.472;5.712;2024-01-30T07:13:51;102382.47;;;14.76;63.37
42105;BME280;70664;51.472;5.712;2024-01-30T07:16:16;102385.09;;;14.77;63.32
42105;BME280;70664;51.472;5.712;2024-01-30T07:18:43;102398.00;;;14.76;63.46
42105;BME280;70664;51.472;5.712;2024-01-30T07:21:09;102391.97;;;14.77;63.49
42105;BME280;70664;51.472;5.712;2024-01-30T07:23:35;102406.66;;;14.76;63.16
42105;BME280;70664;51.472;5.712;2024-01-30T07:26:05;102413.56;;;14.77;63.09
42105;BME280;70664;51.472;5.712;2024-01-30T07:28:32;102416.09;;;14.71;63.63
42105;BME280;70664;51.472;5.712;2024-01-30T07:30:58;102416.94;;;14.70;63.34
42105;BME280;70664;51.472;5.712;2024-01-30T07:33:24;102416.94;;;14.70;63.72
42105;BME280;70664;51.472;5.712;2024-01-30T07:35:52;102413.47;;;14.70;63.46
42105;BME280;70664;51.472;5.712;2024-01-30T07:38:18;102416.94;;;14.72;63.43
42105;BME280;70664;51.472;5.712;2024-01-30T07:40:44;102413.50;;;14.71;63.57
42105;BME280;70664;51.472;5.712;2024-01-30T07:43:10;102422.91;;;14.67;63.41
42105;BME280;70664;51.472;5.712;2024-01-30T07:45:36;102417.81;;;14.72;63.52
42105;BME280;70664;51.472;5.712;2024-01-30T07:48:05;102417.72;;;14.67;63.53
42105;BME280;70664;51.472;5.712;2024-01-30T07:50:31;102426.44;;;14.73;63.52
42105;BME280;70664;51.472;5.712;2024-01-30T07:53:00;102422.97;;;14.71;63.41
42105;BME280;70664;51.472;5.712;2024-01-30T07:55:26;102431.63;;;14.71;63.50
42105;BME280;70664;51.472;5.712;2024-01-30T07:57:57;102434.25;;;14.76;63.17
42105;BME280;70664;51.472;5.712;2024-01-30T08:00:22;102434.09;;;14.65;63.33
42105;BME280;70664;51.472;5.712;2024-01-30T08:02:48;102429.78;;;14.64;63.73
42105;BME280;70664;51.472;5.712;2024-01-30T08:05:14;102434.19;;;14.70;63.35
42105;BME280;70664;51.472;5.712;2024-01-30T08:07:41;102438.50;;;14.69;63.39
42105;BME280;70664;51.472;5.712;2024-01-30T08:10:12;102439.44;;;14.76;63.39
42105;BME280;70664;51.472;5.712;2024-01-30T08:12:39;102441.97;;;14.73;63.34
42105;BME280;70664;51.472;5.712;2024-01-30T08:15:05;102441.97;;;14.73;63.86
42105;BME280;70664;51.472;5.712;2024-01-30T08:17:31;102439.38;;;14.71;63.78
42105;BME280;70664;51.472;5.712;2024-01-30T08:19:57;102447.16;;;14.73;63.67
42105;BME280;70664;51.472;5.712;2024-01-30T08:22:22;102447.25;;;14.79;63.92
42105;BME280;70664;51.472;5.712;2024-01-30T08:24:48;102448.94;;;14.78;63.89
42105;BME280;70664;51.472;5.712;2024-01-30T08:27:14;102449.88;;;14.82;63.82
42105;BME280;70664;51.472;5.712;2024-01-30T08:29:40;102451.56;;;14.80;63.84
42105;BME280;70664;51.472;5.712;2024-01-30T08:32:06;102445.50;;;14.78;63.62
42105;BME280;70664;51.472;5.712;2024-01-30T08:34:32;102448.94;;;14.77;64.08
42105;BME280;70664;51.472;5.712;2024-01-30T08:36:58;102448.16;;;14.84;63.61
42105;BME280;70664;51.472;5.712;2024-01-30T08:39:24;102444.66;;;14.79;64.04
42105;BME280;70664;51.472;5.712;2024-01-30T08:41:50;102455.00;;;14.80;64.08
42105;BME280;70664;51.472;5.712;2024-01-30T08:44:16;102447.28;;;14.82;63.96
42105;BME280;70664;51.472;5.712;2024-01-30T08:46:46;102446.44;;;14.85;63.99
42105;BME280;70664;51.472;5.712;2024-01-30T08:49:13;102451.59;;;14.85;64.13
42105;BME280;70664;51.472;5.712;2024-01-30T08:51:39;102453.38;;;14.87;63.95
42105;BME280;70664;51.472;5.712;2024-01-30T08:54:05;102449.94;;;14.90;64.07
42105;BME280;70664;51.472;5.712;2024-01-30T08:56:31;102447.31;;;14.87;64.09
42105;BME280;70664;51.472;5.712;2024-01-30T08:58:57;102453.34;;;14.86;64.25
42105;BME280;70664;51.472;5.712;2024-01-30T09:01:23;102448.19;;;14.87;64.06
42105;BME280;70664;51.472;5.712;2024-01-30T09:03:48;102453.38;;;14.87;64.15
42105;BME280;70664;51.472;5.712;2024-01-30T09:06:14;102449.00;;;14.83;64.10
42105;BME280;70664;51.472;5.712;2024-01-30T09:08:40;102457.63;;;14.83;64.12
42105;BME280;70664;51.472;5.712;2024-01-30T09:11:13;102456.78;;;14.85;64.71
42105;BME280;70664;51.472;5.712;2024-01-30T09:13:39;102443.88;;;14.86;64.52
42105;BME280;70664;51.472;5.712;2024-01-30T09:16:05;102449.06;;;14.86;64.64
42105;BME280;70664;51.472;5.712;2024-01-30T09:18:32;102449.91;;;14.85;64.55
42105;BME280;70664;51.472;5.712;2024-01-30T09:20:58;102457.69;;;14.87;64.39
42105;BME280;70664;51.472;5.712;2024-01-30T09:23:24;102468.84;;;14.81;64.94
42105;BME280;70664;51.472;5.712;2024-01-30T09:25:50;102469.81;;;14.91;64.07
42105;BME280;70664;51.472;5.712;2024-01-30T09:28:17;102467.16;;;14.85;64.67
42105;BME280;70664;51.472;5.712;2024-01-30T09:30:43;102469.81;;;14.89;64.83
42105;BME280;70664;51.472;5.712;2024-01-30T09:33:09;102472.41;;;14.89;64.59
42105;BME280;70664;51.472;5.712;2024-01-30T09:35:36;102471.56;;;14.93;64.70
42105;BME280;70664;51.472;5.712;2024-01-30T09:38:02;102476.69;;;14.87;64.70
42105;BME280;70664;51.472;5.712;2024-01-30T09:40:28;102477.50;;;14.85;64.92
42105;BME280;70664;51.472;5.712;2024-01-30T09:42:54;102480.94;;;14.82;65.08
42105;BME280;70664;51.472;5.712;2024-01-30T09:45:24;102484.41;;;14.84;64.83
42105;BME280;70664;51.472;5.712;2024-01-30T09:47:51;102486.13;;;14.82;64.93
42105;BME280;70664;51.472;5.712;2024-01-30T09:50:18;102491.34;;;14.85;64.70
42105;BME280;70664;51.472;5.712;2024-01-30T09:52:45;102492.09;;;14.76;65.08
42105;BME280;70664;51.472;5.712;2024-01-30T09:55:11;102489.56;;;14.81;65.07
42105;BME280;70664;51.472;5.712;2024-01-30T09:57:37;102497.28;;;14.79;64.94
42105;BME280;70664;51.472;5.712;2024-01-30T10:00:05;102493.84;;;14.77;64.82
42105;BME280;70664;51.472;5.712;2024-01-30T10:02:39;102492.06;;;14.75;64.73
42105;BME280;70664;51.472;5.712;2024-01-30T10:05:05;102496.38;;;14.76;64.83
42105;BME280;70664;51.472;5.712;2024-01-30T10:07:31;102496.34;;;14.73;64.68
42105;BME280;70664;51.472;5.712;2024-01-30T10:09:57;102498.09;;;14.72;65.01
42105;BME280;70664;51.472;5.712;2024-01-30T10:12:26;102491.91;;;14.64;65.16
42105;BME280;70664;51.472;5.712;2024-01-30T10:14:52;102490.31;;;14.74;65.22
42105;BME280;70664;51.472;5.712;2024-01-30T10:17:18;102491.09;;;14.68;65.20
42105;BME280;70664;51.472;5.712;2024-01-30T10:19:43;102489.47;;;14.73;65.23
42105;BME280;70664;51.472;5.712;2024-01-30T10:22:10;102487.69;;;14.69;65.22
42105;BME280;70664;51.472;5.712;2024-01-30T10:24:36;102489.50;;;14.78;65.14
42105;BME280;70664;51.472;5.712;2024-01-30T10:27:02;102494.69;;;14.78;65.01
42105;BME280;70664;51.472;5.712;2024-01-30T10:29:29;102498.09;;;14.74;64.96
42105;BME280;70664;51.472;5.712;2024-01-30T10:32:05;102499.81;;;14.75;64.65
42105;BME280;70664;51.472;5.712;2024-01-30T10:34:32;102492.88;;;14.69;64.96
42105;BME280;70664;51.472;5.712;2024-01-30T10:37:25;102501.47;;;14.70;65.14
42105;BME280;70664;51.472;5.712;2024-01-30T10:39:53;102499.78;;;14.70;64.70
42105;BME280;70664;51.472;5.712;2024-01-30T10:42:26;102507.47;;;14.67;65.03
42105;BME280;70664;51.472;5.712;2024-01-30T10:45:07;102501.47;;;14.70;64.99
42105;BME280;70664;51.472;5.712;2024-01-30T10:47:35;102500.63;;;14.69;65.04
42105;BME280;70664;51.472;5.712;2024-01-30T10:50:05;102501.34;;;14.62;65.28
42105;BME280;70664;51.472;5.712;2024-01-30T10:52:32;102496.22;;;14.65;65.07
42105;BME280;70664;51.472;5.712;2024-01-30T10:54:58;102504.84;;;14.65;64.89
42105;BME280;70664;51.472;5.712;2024-01-30T10:57:26;102500.50;;;14.61;65.00
42105;BME280;70664;51.472;5.712;2024-01-30T10:59:57;102497.91;;;14.63;65.16
42105;BME280;70664;51.472;5.712;2024-01-30T11:02:25;102505.69;;;14.64;65.02
42105;BME280;70664;51.472;5.712;2024-01-30T11:04:59;102512.69;;;14.68;64.92
42105;BME280;70664;51.472;5.712;2024-01-30T11:07:28;102510.84;;;14.61;65.26
42105;BME280;70664;51.472;5.712;2024-01-30T11:12:32;102511.75;;;14.65;65.05
42105;BME280;70664;51.472;5.712;2024-01-30T11:15:12;102502.28;;;14.67;64.86
42105;BME280;70664;51.472;5.712;2024-01-30T11:17:49;102511.97;;;14.77;64.89
42105;BME280;70664;51.472;5.712;2024-01-30T11:20:30;102507.66;;;14.79;65.18
42105;BME280;70664;51.472;5.712;2024-01-30T11:22:57;102509.38;;;14.79;65.23
42105;BME280;70664;51.472;5.712;2024-01-30T11:25:24;102510.31;;;14.86;64.90
42105;BME280;70664;51.472;5.712;2024-01-30T11:27:56;102515.50;;;14.86;65.05
42105;BME280;70664;51.472;5.712;2024-01-30T11:30:30;102511.13;;;14.81;65.60
42105;BME280;70664;51.472;5.712;2024-01-30T11:33:08;102512.00;;;14.82;65.98
42105;BME280;70664;51.472;5.712;2024-01-30T11:35:36;102502.53;;;14.84;65.85
42105;BME280;70664;51.472;5.712;2024-01-30T11:38:03;102507.75;;;14.89;66.52
42105;BME280;70664;51.472;5.712;2024-01-30T11:40:30;102502.59;;;14.89;66.58
42105;BME280;70664;51.472;5.712;2024-01-30T11:42:59;102510.31;;;14.84;66.91
42105;BME280;70664;51.472;5.712;2024-01-30T11:45:27;102505.13;;;14.86;67.34
42105;BME280;70664;51.472;5.712;2024-01-30T11:47:53;102500.84;;;14.88;67.03
42105;BME280;70664;51.472;5.712;2024-01-30T11:50:20;102494.00;;;14.94;67.34
42105;BME280;70664;51.472;5.712;2024-01-30T11:52:47;102507.09;;;15.04;67.09
42105;BME280;70664;51.472;5.712;2024-01-30T11:55:14;102493.19;;;14.97;67.33
42105;BME280;70664;51.472;5.712;2024-01-30T11:57:40;102503.47;;;14.89;67.49
42105;BME280;70664;51.472;5.712;2024-01-30T12:00:13;102503.47;;;14.91;67.89
42105;BME280;70664;51.472;5.712;2024-01-30T12:02:40;102497.56;;;15.03;67.60
42105;BME280;70664;51.472;5.712;2024-01-30T12:05:06;102497.53;;;15.00;67.98
42105;BME280;70664;51.472;5.712;2024-01-30T12:07:33;102487.16;;;15.00;68.43
42105;BME280;70664;51.472;5.712;2024-01-30T12:09:59;102492.44;;;15.04;68.48
42105;BME280;70664;51.472;5.712;2024-01-30T12:12:26;102495.94;;;15.12;68.57
42105;BME280;70664;51.472;5.712;2024-01-30T12:14:53;102490.72;;;15.09;68.92
42105;BME280;70664;51.472;5.712;2024-01-30T12:17:29;102496.66;;;14.97;70.76
42105;BME280;70664;51.472;5.712;2024-01-30T12:20:09;102498.34;;;14.94;72.35
42105;BME280;70664;51.472;5.712;2024-01-30T12:22:41;102498.41;;;15.00;73.00
42105;BME280;70664;51.472;5.712;2024-01-30T12:25:18;102504.03;;;15.43;72.32
42105;BME280;70664;51.472;5.712;2024-01-30T12:27:47;102506.66;;;15.45;72.28
42105;BME280;70664;51.472;5.712;2024-01-30T12:30:15;102506.66;;;15.47;73.11
42105;BME280;70664;51.472;5.712;2024-01-30T12:32:44;102514.41;;;15.43;73.07
42105;BME280;70664;51.472;5.712;2024-01-30T12:35:15;102513.81;;;15.71;72.40
42105;BME280;70664;51.472;5.712;2024-01-30T12:37:43;102521.72;;;15.85;71.90
42105;BME280;70664;51.472;5.712;2024-01-30T12:40:11;102519.28;;;16.05;70.84
42105;BME280;70664;51.472;5.712;2024-01-30T12:42:39;102522.69;;;15.96;70.52
42105;BME280;70664;51.472;5.712;2024-01-30T12:45:05;102528.81;;;16.05;70.41
42105;BME280;70664;51.472;5.712;2024-01-30T12:47:32;102524.53;;;16.14;70.51
42105;BME280;70664;51.472;5.712;2024-01-30T12:49:58;102531.44;;;16.11;70.28
42105;BME280;70664;51.472;5.712;2024-01-30T12:52:24;102544.44;;;16.11;69.82